sensor_id;sensor_type;location;lat;lon;timestamp;pressure;altitude;pressure_sealevel;temperature;humidity
70684;BME280;58263;48.146;11.440;2023-05-11T00:02:13;95508.09;;;9.57;90.06
70684;BME280;58263;48.146;11.440;2023-05-11T00:04:38;95516.81;;;9.52;89.53
70684;BME280;58263;48.146;11.440;2023-05-11T00:07:04;95513.00;;;9.60;90.47
70684;BME280;58263;48.146;11.440;2023-05-11T00:09:29;95506.91;;;9.53;89.90
70684;BME280;58263;48.146;11.440;2023-05-11T00:11:55;95503.44;;;9.52;89.74
70684;BME280;58263;48.146;11.440;2023-05-11T00:14:20;95498.03;;;9.40;89.30
70684;BME280;58263;48.146;11.440;2023-05-11T00:16:45;95497.84;;;9.54;90.48
70684;BME280;58263;48.146;11.440;2023-05-11T00:19:11;95499.81;;;9.58;89.95
70684;BME280;58263;48.146;11.440;2023-05-11T00:21:36;95505.41;;;9.57;89.05
70684;BME280;58263;48.146;11.440;2023-05-11T00:24:01;95497.72;;;9.48;89.19
70684;BME280;58263;48.146;11.440;2023-05-11T00:26:27;95497.38;;;9.57;89.76
70684;BME280;58263;48.146;11.440;2023-05-11T00:28:52;95493.66;;;9.58;89.89
70684;BME280;58263;48.146;11.440;2023-05-11T00:31:17;95492.34;;;9.48;89.78
70684;BME280;58263;48.146;11.440;2023-05-11T00:33:43;95493.28;;;9.42;90.83
70684;BME280;58263;48.146;11.440;2023-05-11T00:36:08;95491.78;;;9.46;89.88
70684;BME280;58263;48.146;11.440;2023-05-11T00:38:34;95486.75;;;9.38;90.43
70684;BME280;58263;48.146;11.440;2023-05-11T00:41:01;95489.53;;;9.43;90.76
70684;BME280;58263;48.146;11.440;2023-05-11T00:43:26;95487.59;;;9.51;90.04
70684;BME280;58263;48.146;11.440;2023-05-11T00:45:52;95481.50;;;9.43;90.75
70684;BME280;58263;48.146;11.440;2023-05-11T00:48:17;95481.50;;;9.43;90.84
70684;BME280;58263;48.146;11.440;2023-05-11T00:50:43;95479.31;;;9.40;89.82
70684;BME280;58263;48.146;11.440;2023-05-11T00:53:08;95470.81;;;9.43;90.33
70684;BME280;58263;48.146;11.440;2023-05-11T00:55:35;95479.91;;;9.42;89.87
70684;BME280;58263;48.146;11.440;2023-05-11T00:58:01;95472.66;;;9.43;89.38
70684;BME280;58263;48.146;11.440;2023-05-11T01:00:29;95477.31;;;9.36;89.09
70684;BME280;58263;48.146;11.440;2023-05-11T01:02:55;95473.28;;;9.45;89.83
70684;BME280;58263;48.146;11.440;2023-05-11T01:05:20;95479.81;;;9.49;89.53
70684;BME280;58263;48.146;11.440;2023-05-11T01:08:08;95480.97;;;9.53;89.30
70684;BME280;58263;48.146;11.440;2023-05-11T01:11:14;95470.38;;;9.46;90.12
70684;BME280;58263;48.146;11.440;2023-05-11T01:13:47;95477.00;;;9.44;89.17
70684;BME280;58263;48.146;11.440;2023-05-11T01:16:20;95474.97;;;9.39;89.07
70684;BME280;58263;48.146;11.440;2023-05-11T01:18:51;95481.63;;;9.37;90.29
70684;BME280;58263;48.146;11.440;2023-05-11T01:21:20;95467.09;;;9.44;90.11
70684;BME280;58263;48.146;11.440;2023-05-11T01:27:05;95471.63;;;9.44;89.53
70684;BME280;58263;48.146;11.440;2023-05-11T01:32:23;95476.75;;;9.45;89.71
70684;BME280;58263;48.146;11.440;2023-05-11T01:35:06;95467.41;;;9.36;89.67
70684;BME280;58263;48.146;11.440;2023-05-11T01:37:33;95472.31;;;9.39;89.75
70684;BME280;58263;48.146;11.440;2023-05-11T01:40:09;95467.41;;;9.36;89.41
70684;BME280;58263;48.146;11.440;2023-05-11T01:42:43;95470.09;;;9.36;89.71
70684;BME280;58263;48.146;11.440;2023-05-11T01:45:10;95463.84;;;9.42;89.34
70684;BME280;58263;48.146;11.440;2023-05-11T01:47:39;95466.75;;;9.41;89.95
70684;BME280;58263;48.146;11.440;2023-05-11T01:50:06;95461.16;;;9.42;89.75
70684;BME280;58263;48.146;11.440;2023-05-11T01:52:34;95462.19;;;9.41;89.78
70684;BME280;58263;48.146;11.440;2023-05-11T01:55:02;95470.69;;;9.38;90.52
70684;BME280;58263;48.146;11.440;2023-05-11T01:57:30;95464.28;;;9.27;89.34
70684;BME280;58263;48.146;11.440;2023-05-11T01:59:56;95467.66;;;9.35;89.10
70684;BME280;58263;48.146;11.440;2023-05-11T02:02:23;95465.56;;;9.37;89.08
70684;BME280;58263;48.146;11.440;2023-05-11T02:04:50;95465.34;;;9.38;89.98
70684;BME280;58263;48.146;11.440;2023-05-11T02:07:16;95464.75;;;9.36;90.07
70684;BME280;58263;48.146;11.440;2023-05-11T02:09:43;95464.28;;;9.39;89.14
70684;BME280;58263;48.146;11.440;2023-05-11T02:12:10;95467.63;;;9.23;88.15
70684;BME280;58263;48.146;11.440;2023-05-11T02:14:37;95456.16;;;9.34;88.90
70684;BME280;58263;48.146;11.440;2023-05-11T02:17:04;95462.41;;;9.28;89.41
70684;BME280;58263;48.146;11.440;2023-05-11T02:19:32;95456.81;;;9.29;90.29
70684;BME280;58263;48.146;11.440;2023-05-11T02:21:59;95461.50;;;9.34;89.17
70684;BME280;58263;48.146;11.440;2023-05-11T02:24:26;95455.53;;;9.32;89.99
70684;BME280;58263;48.146;11.440;2023-05-11T02:26:54;95454.22;;;9.23;90.29
70684;BME280;58263;48.146;11.440;2023-05-11T02:29:20;95458.19;;;9.20;90.53
70684;BME280;58263;48.146;11.440;2023-05-11T02:31:46;95452.53;;;9.28;89.34
70684;BME280;58263;48.146;11.440;2023-05-11T02:34:23;95451.34;;;9.24;89.64
70684;BME280;58263;48.146;11.440;2023-05-11T02:36:53;95450.53;;;9.24;89.71
70684;BME280;58263;48.146;11.440;2023-05-11T02:39:20;95443.09;;;9.26;89.39
70684;BME280;58263;48.146;11.440;2023-05-11T02:41:50;95453.44;;;9.22;90.10
70684;BME280;58263;48.146;11.440;2023-05-11T02:44:17;95451.66;;;9.16;90.14
70684;BME280;58263;48.146;11.440;2023-05-11T02:46:46;95452.25;;;9.18;89.30
70684;BME280;58263;48.146;11.440;2023-05-11T02:49:14;95448.19;;;9.16;90.03
70684;BME280;58263;48.146;11.440;2023-05-11T02:51:43;95455.88;;;9.24;90.20
70684;BME280;58263;48.146;11.440;2023-05-11T02:54:11;95444.78;;;9.08;89.92
70684;BME280;58263;48.146;11.440;2023-05-11T02:56:38;95447.69;;;9.07;90.57
70684;BME280;58263;48.146;11.440;2023-05-11T02:59:03;95451.19;;;9.07;90.80
70684;BME280;58263;48.146;11.440;2023-05-11T03:01:29;95454.88;;;9.06;90.88
70684;BME280;58263;48.146;11.440;2023-05-11T03:03:55;95450.72;;;9.10;89.97
70684;BME280;58263;48.146;11.440;2023-05-11T03:06:20;95450.72;;;9.10;90.33
70684;BME280;58263;48.146;11.440;2023-05-11T03:08:46;95453.38;;;9.10;89.92
70684;BME280;58263;48.146;11.440;2023-05-11T03:11:12;95451.19;;;9.07;89.69
70684;BME280;58263;48.146;11.440;2023-05-11T03:13:41;95455.97;;;9.05;89.60
70684;BME280;58263;48.146;11.440;2023-05-11T03:16:08;95448.81;;;8.99;89.69
70684;BME280;58263;48.146;11.440;2023-05-11T03:18:35;95453.03;;;9.07;90.42
70684;BME280;58263;48.146;11.440;2023-05-11T03:21:01;95443.34;;;8.94;90.63
70684;BME280;58263;48.146;11.440;2023-05-11T03:23:28;95446.16;;;8.99;90.30
70684;BME280;58263;48.146;11.440;2023-05-11T03:25:54;95448.97;;;9.04;89.73
70684;BME280;58263;48.146;11.440;2023-05-11T03:28:21;95443.00;;;9.02;90.14
70684;BME280;58263;48.146;11.440;2023-05-11T03:30:48;95442.03;;;8.85;88.81
70684;BME280;58263;48.146;11.440;2023-05-11T03:33:16;95442.88;;;8.97;89.83
70684;BME280;58263;48.146;11.440;2023-05-11T03:35:42;95440.66;;;8.94;88.85
70684;BME280;58263;48.146;11.440;2023-05-11T03:38:10;95438.91;;;8.88;90.92
70684;BME280;58263;48.146;11.440;2023-05-11T03:40:39;95433.34;;;8.89;89.31
70684;BME280;58263;48.146;11.440;2023-05-11T03:43:08;95434.50;;;8.93;90.37
70684;BME280;58263;48.146;11.440;2023-05-11T03:45:35;95428.22;;;9.00;90.31
70684;BME280;58263;48.146;11.440;2023-05-11T03:48:02;95432.06;;;8.92;90.10
70684;BME280;58263;48.146;11.440;2023-05-11T03:50:29;95428.78;;;8.90;89.93
70684;BME280;58263;48.146;11.440;2023-05-11T03:52:55;95420.94;;;8.76;90.68
70684;BME280;58263;48.146;11.440;2023-05-11T03:55:20;95420.72;;;8.78;89.97
70684;BME280;58263;48.146;11.440;2023-05-11T03:57:47;95422.72;;;8.83;89.82
70684;BME280;58263;48.146;11.440;2023-05-11T04:00:13;95425.72;;;8.74;90.26
70684;BME280;58263;48.146;11.440;2023-05-11T04:02:38;95417.84;;;8.91;89.66
70684;BME280;58263;48.146;11.440;2023-05-11T04:05:08;95427.28;;;8.94;89.82
70684;BME280;58263;48.146;11.440;2023-05-11T04:07:35;95424.16;;;8.97;89.59
70684;BME280;58263;48.146;11.440;2023-05-11T04:10:02;95427.16;;;8.89;89.32
70684;BME280;58263;48.146;11.440;2023-05-11T04:12:27;95421.59;;;8.90;89.42
70684;BME280;58263;48.146;11.440;2023-05-11T04:14:52;95425.53;;;8.88;89.68
70684;BME280;58263;48.146;11.440;2023-05-11T04:17:18;95426.81;;;8.85;90.39
70684;BME280;58263;48.146;11.440;2023-05-11T04:19:43;95426.13;;;8.90;89.77
70684;BME280;58263;48.146;11.440;2023-05-11T04:22:08;95423.38;;;8.78;89.78
70684;BME280;58263;48.146;11.440;2023-05-11T04:24:36;95420.84;;;8.71;89.76
70684;BME280;58263;48.146;11.440;2023-05-11T04:27:01;95424.78;;;8.80;90.42
70684;BME280;58263;48.146;11.440;2023-05-11T04:29:28;95426.13;;;8.90;90.10
70684;BME280;58263;48.146;11.440;2023-05-11T04:31:54;95429.63;;;8.90;89.92
70684;BME280;58263;48.146;11.440;2023-05-11T04:34:19;95432.97;;;8.86;89.64
70684;BME280;58263;48.146;11.440;2023-05-11T04:36:48;95433.19;;;8.84;90.11
70684;BME280;58263;48.146;11.440;2023-05-11T04:39:14;95433.28;;;8.77;88.90
70684;BME280;58263;48.146;11.440;2023-05-11T04:41:41;95431.06;;;8.74;89.13
70684;BME280;58263;48.146;11.440;2023-05-11T04:44:07;95436.41;;;8.74;89.56
70684;BME280;58263;48.146;11.440;2023-05-11T04:46:32;95432.41;;;8.65;89.02
70684;BME280;58263;48.146;11.440;2023-05-11T04:48:57;95428.97;;;8.76;89.35
70684;BME280;58263;48.146;11.440;2023-05-11T04:51:22;95430.59;;;8.77;90.03
70684;BME280;58263;48.146;11.440;2023-05-11T04:53:48;95428.97;;;8.76;89.36
70684;BME280;58263;48.146;11.440;2023-05-11T04:56:13;95435.16;;;8.77;89.62
70684;BME280;58263;48.146;11.440;2023-05-11T04:58:39;95428.63;;;8.73;90.74
70684;BME280;58263;48.146;11.440;2023-05-11T05:01:04;95432.81;;;8.80;89.96
70684;BME280;58263;48.146;11.440;2023-05-11T05:03:30;95438.16;;;8.80;89.65
70684;BME280;58263;48.146;11.440;2023-05-11T05:05:55;95431.41;;;8.78;90.49
70684;BME280;58263;48.146;11.440;2023-05-11T05:08:21;95438.53;;;8.84;90.01
70684;BME280;58263;48.146;11.440;2023-05-11T05:10:46;95431.88;;;8.75;89.55
70684;BME280;58263;48.146;11.440;2023-05-11T05:13:12;95436.25;;;8.88;89.99
70684;BME280;58263;48.146;11.440;2023-05-11T05:15:37;95438.06;;;8.87;89.62
70684;BME280;58263;48.146;11.440;2023-05-11T05:18:03;95442.63;;;8.87;89.94
70684;BME280;58263;48.146;11.440;2023-05-11T05:20:28;95435.50;;;8.80;88.99
70684;BME280;58263;48.146;11.440;2023-05-11T05:22:53;95434.41;;;8.70;89.06
70684;BME280;58263;48.146;11.440;2023-05-11T05:25:19;95440.19;;;8.85;89.60
70684;BME280;58263;48.146;11.440;2023-05-11T05:27:46;95435.94;;;8.77;89.25
70684;BME280;58263;48.146;11.440;2023-05-11T05:30:11;95437.97;;;8.82;89.15
70684;BME280;58263;48.146;11.440;2023-05-11T05:32:37;95445.66;;;8.90;88.68
70684;BME280;58263;48.146;11.440;2023-05-11T05:35:02;95443.66;;;8.86;90.31
70684;BME280;58263;48.146;11.440;2023-05-11T05:37:28;95446.47;;;8.91;88.48
70684;BME280;58263;48.146;11.440;2023-05-11T05:39:53;95450.56;;;8.93;89.68
70684;BME280;58263;48.146;11.440;2023-05-11T05:42:19;95450.09;;;8.96;89.57
70684;BME280;58263;48.146;11.440;2023-05-11T05:44:44;95448.81;;;8.99;89.47
70684;BME280;58263;48.146;11.440;2023-05-11T05:47:09;95454.47;;;9.09;88.13
70684;BME280;58263;48.146;11.440;2023-05-11T05:49:35;95449.53;;;9.06;89.48
70684;BME280;58263;48.146;11.440;2023-05-11T05:52:00;95449.53;;;9.06;89.27
70684;BME280;58263;48.146;11.440;2023-05-11T05:54:26;95449.53;;;9.06;88.33
70684;BME280;58263;48.146;11.440;2023-05-11T05:56:51;95444.78;;;9.08;88.88
70684;BME280;58263;48.146;11.440;2023-05-11T05:59:17;95445.97;;;9.12;89.44
70684;BME280;58263;48.146;11.440;2023-05-11T06:01:45;95447.81;;;9.12;88.95
70684;BME280;58263;48.146;11.440;2023-05-11T06:04:12;95450.63;;;9.17;88.27
70684;BME280;58263;48.146;11.440;2023-05-11T06:06:37;95451.88;;;9.14;89.04
70684;BME280;58263;48.146;11.440;2023-05-11T06:09:02;95456.72;;;9.24;88.25
70684;BME280;58263;48.146;11.440;2023-05-11T06:11:28;95449.47;;;9.25;88.70
70684;BME280;58263;48.146;11.440;2023-05-11T06:13:53;95458.88;;;9.16;89.69
70684;BME280;58263;48.146;11.440;2023-05-11T06:16:18;95451.78;;;9.21;88.19
70684;BME280;58263;48.146;11.440;2023-05-11T06:18:45;95452.41;;;9.23;88.27
70684;BME280;58263;48.146;11.440;2023-05-11T06:21:10;95463.09;;;9.35;87.81
70684;BME280;58263;48.146;11.440;2023-05-11T06:23:35;95455.88;;;9.24;87.82
70684;BME280;58263;48.146;11.440;2023-05-11T06:26:01;95452.03;;;9.20;87.30
70684;BME280;58263;48.146;11.440;2023-05-11T06:28:26;95455.41;;;9.27;87.00
70684;BME280;58263;48.146;11.440;2023-05-11T06:30:51;95460.91;;;9.32;87.49
70684;BME280;58263;48.146;11.440;2023-05-11T06:33:20;95454.03;;;9.36;87.08
70684;BME280;58263;48.146;11.440;2023-05-11T06:35:45;95462.06;;;9.24;88.41
70684;BME280;58263;48.146;11.440;2023-05-11T06:38:10;95459.25;;;9.31;88.26
70684;BME280;58263;48.146;11.440;2023-05-11T06:40:35;95459.38;;;9.36;88.35
70684;BME280;58263;48.146;11.440;2023-05-11T06:43:01;95465.06;;;9.28;88.29
70684;BME280;58263;48.146;11.440;2023-05-11T06:45:26;95455.78;;;9.30;89.05
70684;BME280;58263;48.146;11.440;2023-05-11T06:47:51;95458.22;;;9.32;87.87
70684;BME280;58263;48.146;11.440;2023-05-11T06:50:17;95468.69;;;9.34;89.09
70684;BME280;58263;48.146;11.440;2023-05-11T06:52:42;95460.75;;;9.27;87.78
70684;BME280;58263;48.146;11.440;2023-05-11T06:55:11;95459.97;;;9.26;88.65
70684;BME280;58263;48.146;11.440;2023-05-11T06:57:37;95462.88;;;9.25;88.43
70684;BME280;58263;48.146;11.440;2023-05-11T07:00:02;95452.97;;;9.25;88.89
70684;BME280;58263;48.146;11.440;2023-05-11T07:02:28;95459.59;;;9.23;88.59
70684;BME280;58263;48.146;11.440;2023-05-11T07:04:54;95461.50;;;9.34;87.31
70684;BME280;58263;48.146;11.440;2023-05-11T07:07:19;95458.94;;;9.51;87.75
70684;BME280;58263;48.146;11.440;2023-05-11T07:09:44;95450.81;;;9.58;87.84
70684;BME280;58263;48.146;11.440;2023-05-11T07:12:10;95455.69;;;9.37;88.17
70684;BME280;58263;48.146;11.440;2023-05-11T07:14:35;95465.34;;;9.50;87.87
70684;BME280;58263;48.146;11.440;2023-05-11T07:17:01;95474.69;;;9.59;87.43
70684;BME280;58263;48.146;11.440;2023-05-11T07:19:26;95464.06;;;9.53;87.95
70684;BME280;58263;48.146;11.440;2023-05-11T07:21:51;95463.84;;;9.54;88.00
70684;BME280;58263;48.146;11.440;2023-05-11T07:24:17;95463.38;;;9.69;87.34
70684;BME280;58263;48.146;11.440;2023-05-11T07:26:42;95467.22;;;9.73;87.55
70684;BME280;58263;48.146;11.440;2023-05-11T07:29:07;95472.72;;;9.55;87.59
70684;BME280;58263;48.146;11.440;2023-05-11T07:31:33;95463.75;;;9.49;87.08
70684;BME280;58263;48.146;11.440;2023-05-11T07:33:59;95457.41;;;9.43;88.45
70684;BME280;58263;48.146;11.440;2023-05-11T07:36:24;95466.28;;;9.44;88.02
70684;BME280;58263;48.146;11.440;2023-05-11T07:38:50;95457.53;;;9.48;88.18
70684;BME280;58263;48.146;11.440;2023-05-11T07:41:16;95461.72;;;9.44;88.14
70684;BME280;58263;48.146;11.440;2023-05-11T07:43:43;95459.66;;;9.46;87.72
70684;BME280;58263;48.146;11.440;2023-05-11T07:46:08;95463.00;;;9.42;87.12
70684;BME280;58263;48.146;11.440;2023-05-11T07:48:33;95460.22;;;9.37;89.36
70684;BME280;58263;48.146;11.440;2023-05-11T07:50:59;95466.31;;;9.56;88.45
70684;BME280;58263;48.146;11.440;2023-05-11T07:53:25;95464.34;;;9.63;88.36
70684;BME280;58263;48.146;11.440;2023-05-11T07:55:51;95466.19;;;9.51;88.40
70684;BME280;58263;48.146;11.440;2023-05-11T07:58:16;95462.13;;;9.72;88.53
70684;BME280;58263;48.146;11.440;2023-05-11T08:00:41;95460.00;;;9.62;87.20
70684;BME280;58263;48.146;11.440;2023-05-11T08:03:07;95462.94;;;9.72;87.50
70684;BME280;58263;48.146;11.440;2023-05-11T08:05:32;95466.09;;;9.81;87.19
70684;BME280;58263;48.146;11.440;2023-05-11T08:08:01;95468.53;;;9.82;87.48
70684;BME280;58263;48.146;11.440;2023-05-11T08:10:27;95462.69;;;9.86;86.12
70684;BME280;58263;48.146;11.440;2023-05-11T08:12:52;95459.44;;;9.84;85.98
70684;BME280;58263;48.146;11.440;2023-05-11T08:15:17;95448.97;;;9.94;86.67
70684;BME280;58263;48.146;11.440;2023-05-11T08:17:42;95451.19;;;9.97;85.31
70684;BME280;58263;48.146;11.440;2023-05-11T08:20:10;95455.59;;;10.15;85.72
70684;BME280;58263;48.146;11.440;2023-05-11T08:22:35;95454.06;;;10.07;87.17
70684;BME280;58263;48.146;11.440;2023-05-11T08:25:02;95458.28;;;10.27;85.63
70684;BME280;58263;48.146;11.440;2023-05-11T08:27:27;95453.72;;;10.15;85.85
70684;BME280;58263;48.146;11.440;2023-05-11T08:29:54;95459.44;;;10.19;86.20
70684;BME280;58263;48.146;11.440;2023-05-11T08:32:19;95457.69;;;10.37;86.18
70684;BME280;58263;48.146;11.440;2023-05-11T08:34:45;95460.94;;;10.27;85.40
70684;BME280;58263;48.146;11.440;2023-05-11T08:37:10;95456.63;;;10.26;85.65
70684;BME280;58263;48.146;11.440;2023-05-11T08:39:36;95456.63;;;10.26;86.62
70684;BME280;58263;48.146;11.440;2023-05-11T08:42:02;95448.34;;;10.27;86.60
70684;BME280;58263;48.146;11.440;2023-05-11T08:44:31;95460.63;;;10.35;85.80
70684;BME280;58263;48.146;11.440;2023-05-11T08:46:57;95446.50;;;10.40;85.86
70684;BME280;58263;48.146;11.440;2023-05-11T08:49:24;95443.19;;;10.49;85.87
70684;BME280;58263;48.146;11.440;2023-05-11T08:51:50;95444.28;;;10.48;85.23
70684;BME280;58263;48.146;11.440;2023-05-11T08:54:15;95441.34;;;10.50;84.32
70684;BME280;58263;48.146;11.440;2023-05-11T08:56:42;95446.28;;;10.70;85.12
70684;BME280;58263;48.146;11.440;2023-05-11T08:59:08;95435.66;;;10.75;84.88
70684;BME280;58263;48.146;11.440;2023-05-11T09:01:39;95440.59;;;10.67;84.63
70684;BME280;58263;48.146;11.440;2023-05-11T09:04:05;95444.66;;;10.69;84.21
70684;BME280;58263;48.146;11.440;2023-05-11T09:06:31;95438.16;;;10.65;84.88
70684;BME280;58263;48.146;11.440;2023-05-11T09:08:57;95449.28;;;10.45;83.90
70684;BME280;58263;48.146;11.440;2023-05-11T09:11:23;95442.66;;;10.76;84.89
70684;BME280;58263;48.146;11.440;2023-05-11T09:13:49;95439.03;;;10.82;85.07
70684;BME280;58263;48.146;11.440;2023-05-11T09:16:15;95447.16;;;10.88;84.68
70684;BME280;58263;48.146;11.440;2023-05-11T09:18:51;95448.78;;;10.89;83.21
70684;BME280;58263;48.146;11.440;2023-05-11T09:21:18;95449.00;;;10.99;84.50
70684;BME280;58263;48.146;11.440;2023-05-11T09:23:44;95448.66;;;10.95;84.01
70684;BME280;58263;48.146;11.440;2023-05-11T09:26:16;95445.22;;;10.71;83.05
70684;BME280;58263;48.146;11.440;2023-05-11T09:28:56;95447.44;;;10.74;84.15
70684;BME280;58263;48.146;11.440;2023-05-11T09:31:44;95448.69;;;10.83;84.67
70684;BME280;58263;48.146;11.440;2023-05-11T09:36:42;95447.00;;;10.65;84.13
70684;BME280;58263;48.146;11.440;2023-05-11T09:39:09;95431.72;;;10.66;84.05
70684;BME280;58263;48.146;11.440;2023-05-11T09:41:34;95433.94;;;10.69;84.87
70684;BME280;58263;48.146;11.440;2023-05-11T09:44:08;95439.44;;;10.91;84.22
70684;BME280;58263;48.146;11.440;2023-05-11T09:46:36;95435.19;;;10.78;85.09
70684;BME280;58263;48.146;11.440;2023-05-11T09:49:02;95434.97;;;10.97;84.54
70684;BME280;58263;48.146;11.440;2023-05-11T09:51:32;95439.94;;;10.88;83.49
70684;BME280;58263;48.146;11.440;2023-05-11T09:53:58;95437.00;;;10.90;84.16
70684;BME280;58263;48.146;11.440;2023-05-11T09:56:50;95437.78;;;11.02;84.97
70684;BME280;58263;48.146;11.440;2023-05-11T09:59:40;95430.66;;;10.96;85.79
70684;BME280;58263;48.146;11.440;2023-05-11T10:02:21;95433.34;;;10.96;84.90
70684;BME280;58263;48.146;11.440;2023-05-11T10:04:52;95436.41;;;10.88;82.49
70684;BME280;58263;48.146;11.440;2023-05-11T10:09:53;95428.66;;;11.03;84.15
70684;BME280;58263;48.146;11.440;2023-05-11T10:12:21;95423.38;;;11.08;83.96
70684;BME280;58263;48.146;11.440;2023-05-11T10:14:51;95424.91;;;11.04;83.72
70684;BME280;58263;48.146;11.440;2023-05-11T10:17:18;95431.22;;;11.10;85.29
70684;BME280;58263;48.146;11.440;2023-05-11T10:19:45;95426.94;;;10.97;82.89
70684;BME280;58263;48.146;11.440;2023-05-11T10:22:10;95421.47;;;10.92;83.92
70684;BME280;58263;48.146;11.440;2023-05-11T10:24:37;95426.38;;;10.95;83.49
70684;BME280;58263;48.146;11.440;2023-05-11T10:27:03;95423.44;;;10.96;84.10
70684;BME280;58263;48.146;11.440;2023-05-11T10:29:29;95418.41;;;11.00;83.46
70684;BME280;58263;48.146;11.440;2023-05-11T10:31:56;95419.13;;;10.95;82.45
70684;BME280;58263;48.146;11.440;2023-05-11T10:34:23;95421.66;;;11.02;81.98
70684;BME280;58263;48.146;11.440;2023-05-11T10:36:51;95417.34;;;11.01;81.02
70684;BME280;58263;48.146;11.440;2023-05-11T10:39:16;95417.44;;;11.06;81.10
70684;BME280;58263;48.146;11.440;2023-05-11T10:47:22;95417.94;;;11.03;81.02
70684;BME280;58263;48.146;11.440;2023-05-11T10:55:14;95422.81;;;11.23;82.22
70684;BME280;58263;48.146;11.440;2023-05-11T10:57:56;95415.59;;;11.24;81.96
70684;BME280;58263;48.146;11.440;2023-05-11T11:01:18;95412.44;;;11.27;81.74
70684;BME280;58263;48.146;11.440;2023-05-11T11:03:18;95407.69;;;11.17;82.31
70684;BME280;58263;48.146;11.440;2023-05-11T11:05:43;95412.91;;;11.41;83.00
70684;BME280;58263;48.146;11.440;2023-05-11T11:08:10;95413.66;;;11.36;82.68
70684;BME280;58263;48.146;11.440;2023-05-11T11:10:41;95420.06;;;11.35;81.93
70684;BME280;58263;48.146;11.440;2023-05-11T11:13:12;95418.75;;;11.21;80.97
70684;BME280;58263;48.146;11.440;2023-05-11T11:18:19;95416.25;;;11.31;82.67
70684;BME280;58263;48.146;11.440;2023-05-11T11:20:49;95414.91;;;10.99;81.94
70684;BME280;58263;48.146;11.440;2023-05-11T11:26:03;95420.06;;;11.35;82.35
70684;BME280;58263;48.146;11.440;2023-05-11T11:31:28;95412.09;;;11.23;81.77
70684;BME280;58263;48.146;11.440;2023-05-11T11:33:54;95415.28;;;11.37;80.00
70684;BME280;58263;48.146;11.440;2023-05-11T11:42:15;95410.78;;;11.26;81.98
70684;BME280;58263;48.146;11.440;2023-05-11T11:44:42;95414.72;;;11.35;82.05
70684;BME280;58263;48.146;11.440;2023-05-11T11:47:19;95417.88;;;11.32;81.20
70684;BME280;58263;48.146;11.440;2023-05-11T11:49:47;95410.13;;;11.36;82.47
70684;BME280;58263;48.146;11.440;2023-05-11T11:52:13;95419.59;;;11.38;82.38
70684;BME280;58263;48.146;11.440;2023-05-11T11:54:40;95419.09;;;11.24;82.93
70684;BME280;58263;48.146;11.440;2023-05-11T11:57:41;95417.16;;;11.20;84.97
70684;BME280;58263;48.146;11.440;2023-05-11T12:00:09;95415.03;;;11.39;82.71
70684;BME280;58263;48.146;11.440;2023-05-11T12:02:44;95417.25;;;11.25;83.27
70684;BME280;58263;48.146;11.440;2023-05-11T12:07:44;95412.09;;;11.23;82.76
70684;BME280;58263;48.146;11.440;2023-05-11T12:10:12;95417.28;;;11.30;82.86
70684;BME280;58263;48.146;11.440;2023-05-11T12:12:38;95416.84;;;11.33;83.48
70684;BME280;58263;48.146;11.440;2023-05-11T12:15:05;95409.50;;;11.28;82.34
70684;BME280;58263;48.146;11.440;2023-05-11T12:17:31;95407.22;;;11.37;82.45
70684;BME280;58263;48.146;11.440;2023-05-11T12:20:15;95408.44;;;11.46;82.94
70684;BME280;58263;48.146;11.440;2023-05-11T12:22:41;95405.91;;;11.40;81.88
70684;BME280;58263;48.146;11.440;2023-05-11T12:25:08;95403.31;;;11.45;82.97
70684;BME280;58263;48.146;11.440;2023-05-11T12:30:20;95411.94;;;11.64;81.37
70684;BME280;58263;48.146;11.440;2023-05-11T12:32:45;95404.88;;;11.58;81.54
70684;BME280;58263;48.146;11.440;2023-05-11T12:35:11;95401.03;;;11.54;81.38
70684;BME280;58263;48.146;11.440;2023-05-11T12:37:40;95397.28;;;11.55;79.61
70684;BME280;58263;48.146;11.440;2023-05-11T12:40:09;95400.13;;;11.65;81.94
70684;BME280;58263;48.146;11.440;2023-05-11T12:42:34;95400.13;;;11.65;82.80
70684;BME280;58263;48.146;11.440;2023-05-11T12:45:00;95397.63;;;11.75;82.28
70684;BME280;58263;48.146;11.440;2023-05-11T12:47:26;95397.06;;;11.56;82.68
70684;BME280;58263;48.146;11.440;2023-05-11T12:49:51;95396.88;;;11.63;80.80
70684;BME280;58263;48.146;11.440;2023-05-11T12:52:17;95396.31;;;11.61;82.98
70684;BME280;58263;48.146;11.440;2023-05-11T12:54:47;95397.66;;;11.80;81.11
70684;BME280;58263;48.146;11.440;2023-05-11T12:57:26;95394.34;;;11.73;81.65
70684;BME280;58263;48.146;11.440;2023-05-11T13:00:08;95388.03;;;11.84;81.43
70684;BME280;58263;48.146;11.440;2023-05-11T13:02:49;95385.31;;;11.79;81.69
70684;BME280;58263;48.146;11.440;2023-05-11T13:05:15;95383.19;;;11.81;79.96
70684;BME280;58263;48.146;11.440;2023-05-11T13:07:41;95385.34;;;11.84;80.21
70684;BME280;58263;48.146;11.440;2023-05-11T13:10:08;95384.38;;;11.91;82.15
70684;BME280;58263;48.146;11.440;2023-05-11T13:12:34;95380.31;;;11.88;81.35
70684;BME280;58263;48.146;11.440;2023-05-11T13:17:30;95379.00;;;11.91;81.62
70684;BME280;58263;48.146;11.440;2023-05-11T13:19:56;95376.13;;;11.75;82.00
70684;BME280;58263;48.146;11.440;2023-05-11T13:22:21;95372.84;;;11.73;81.62
70684;BME280;58263;48.146;11.440;2023-05-11T13:24:47;95373.56;;;11.86;81.59
70684;BME280;58263;48.146;11.440;2023-05-11T13:27:12;95370.69;;;12.09;81.03
70684;BME280;58263;48.146;11.440;2023-05-11T13:29:37;95366.47;;;11.96;81.28
70684;BME280;58263;48.146;11.440;2023-05-11T13:32:03;95368.75;;;11.88;81.12
70684;BME280;58263;48.146;11.440;2023-05-11T13:34:28;95362.16;;;11.95;81.15
70684;BME280;58263;48.146;11.440;2023-05-11T13:36:54;95364.50;;;12.09;80.06
70684;BME280;58263;48.146;11.440;2023-05-11T13:39:20;95364.81;;;12.12;80.80
70684;BME280;58263;48.146;11.440;2023-05-11T13:41:45;95364.91;;;12.00;79.80
70684;BME280;58263;48.146;11.440;2023-05-11T13:44:11;95361.44;;;12.00;79.59